Time;durP1;ratioP1;P1;durP2;ratioP2;P2;SDS_P1;SDS_P2;PMS_P1;PMS_P2;Temp;Humidity;BMP_temperature;BMP_pressure;BME280_temperature;BME280_humidity;BME280_pressure;Samples;Min_cycle;Max_cycle;Signal;HPM_P1;HPM_P2
2022/11/23 00:00:33;;;;;;;0.10;0.10;;;7.30;99.90;;;;;;5049626;28;20079;-86
2022/11/23 00:02:59;;;;;;;0.10;0.10;;;7.20;99.90;;;;;;5047382;28;20036;-86
2022/11/23 00:05:27;;;;;;;0.30;0.30;;;7.30;99.90;;;;;;5049360;28;20040;-85
2022/11/23 00:07:53;;;;;;;0.30;0.30;;;7.20;99.90;;;;;;5048093;28;20142;-86
2022/11/23 00:10:18;;;;;;;1.63;0.63;;;7.30;99.90;;;;;;5049409;28;20113;-85
2022/11/23 00:12:44;;;;;;;0.10;0.10;;;7.30;99.90;;;;;;5050728;28;20033;-85
2022/11/23 00:15:13;;;;;;;0.55;0.40;;;7.30;99.90;;;;;;5049508;28;20078;-85
2022/11/23 00:17:39;;;;;;;0.10;0.10;;;7.20;99.90;;;;;;5049347;28;20771;-86
2022/11/23 00:20:06;;;;;;;0.10;0.10;;;7.20;99.90;;;;;;5049488;28;20079;-85
2022/11/23 00:22:32;;;;;;;;;;;7.20;99.90;;;;;;5050083;28;20039;-84
2022/11/23 00:24:57;;;;;;;0.13;0.13;;;7.20;99.90;;;;;;5056511;28;20299;-85
2022/11/23 00:27:23;;;;;;;0.10;0.10;;;7.10;99.90;;;;;;5048785;28;20040;-87
2022/11/23 00:29:49;;;;;;;0.10;0.10;;;7.20;99.90;;;;;;5048956;28;20115;-87
2022/11/23 00:32:14;;;;;;;0.13;0.13;;;7.20;99.90;;;;;;5049176;28;20403;-86
2022/11/23 00:34:40;;;;;;;0.10;0.10;;;7.10;99.90;;;;;;5032117;28;20021;-85
2022/11/23 00:37:06;;;;;;;0.20;0.20;;;7.20;99.90;;;;;;5049440;28;20108;-88
2022/11/23 00:39:32;;;;;;;0.10;0.10;;;7.10;99.90;;;;;;5030490;28;20025;-86
2022/11/23 00:41:57;;;;;;;0.10;0.10;;;7.10;99.90;;;;;;5047495;28;20041;-86
2022/11/23 00:44:23;;;;;;;0.10;0.10;;;7.20;99.90;;;;;;5049600;28;20063;-87
2022/11/23 00:46:49;;;;;;;1.55;0.40;;;7.10;99.90;;;;;;5046034;28;20033;-86
2022/11/23 00:49:14;;;;;;;0.10;0.10;;;7.20;99.90;;;;;;5048697;28;20036;-82
2022/11/23 00:51:40;;;;;;;0.10;0.10;;;7.30;99.90;;;;;;5048431;28;20017;-82
2022/11/23 00:54:06;;;;;;;0.10;0.10;;;7.10;99.90;;;;;;5061408;28;20021;-83
2022/11/23 00:56:33;;;;;;;1.35;1.00;;;7.20;99.90;;;;;;5030054;28;20067;-82
2022/11/23 00:59:01;;;;;;;0.10;0.10;;;7.20;99.90;;;;;;5049459;28;20392;-82
2022/11/23 01:01:33;;;;;;;2.83;1.33;;;7.30;99.90;;;;;;5030173;28;20032;-83
2022/11/23 01:04:00;;;;;;;0.10;0.10;;;7.00;99.90;;;;;;5047868;28;20539;-85
2022/11/23 01:06:29;;;;;;;0.65;0.43;;;7.20;99.90;;;;;;5047966;28;20041;-84
2022/11/23 01:08:58;;;;;;;0.10;0.10;;;7.20;99.90;;;;;;5031456;28;20033;-83
2022/11/23 01:11:26;;;;;;;0.10;0.10;;;7.20;99.90;;;;;;5050395;28;20075;-85
2022/11/23 01:13:52;;;;;;;0.10;0.10;;;7.10;99.90;;;;;;5030021;28;20064;-83
2022/11/23 01:16:23;;;;;;;0.10;0.10;;;7.10;99.90;;;;;;5047613;28;20073;-85
2022/11/23 01:18:56;;;;;;;0.10;0.10;;;7.10;99.90;;;;;;5029235;28;20046;-83
2022/11/23 01:21:23;;;;;;;0.10;0.10;;;7.00;99.90;;;;;;5028915;28;20044;-86
2022/11/23 01:23:49;;;;;;;0.15;0.15;;;7.10;99.90;;;;;;5048529;28;20056;-83
2022/11/23 01:26:15;;;;;;;0.30;0.30;;;7.00;99.90;;;;;;5049475;28;20041;-83
2022/11/23 01:28:41;;;;;;;10.45;3.22;;;7.30;99.90;;;;;;5047396;28;20057;-83
2022/11/23 01:31:13;;;;;;;1.27;1.10;;;7.30;99.90;;;;;;5047280;28;20080;-83
2022/11/23 01:33:39;;;;;;;0.10;0.10;;;7.20;99.90;;;;;;5047587;28;20090;-83
2022/11/23 01:36:14;;;;;;;0.10;0.10;;;7.10;99.90;;;;;;5030119;28;20032;-83
2022/11/23 01:38:40;;;;;;;0.10;0.10;;;7.20;99.90;;;;;;5056484;28;20056;-83
2022/11/23 01:41:09;;;;;;;0.10;0.10;;;7.30;99.90;;;;;;5047262;28;20039;-83
2022/11/23 01:43:35;;;;;;;0.10;0.10;;;7.20;99.90;;;;;;5047018;28;20389;-84
2022/11/23 01:46:01;;;;;;;0.10;0.10;;;7.20;99.90;;;;;;5046832;28;20039;-84
2022/11/23 01:48:36;;;;;;;0.10;0.10;;;7.30;99.90;;;;;;5047356;28;20025;-84
2022/11/23 01:51:07;;;;;;;0.10;0.10;;;7.20;99.90;;;;;;5029232;28;20028;-84
2022/11/23 01:53:33;;;;;;;0.10;0.10;;;7.10;99.90;;;;;;5045619;28;20029;-84
2022/11/23 01:56:01;;;;;;;0.10;0.10;;;7.20;99.90;;;;;;5046987;28;20051;-85
2022/11/23 01:58:31;;;;;;;3.65;1.17;;;7.20;99.90;;;;;;5049083;28;20039;-84
2022/11/23 02:00:57;;;;;;;0.10;0.10;;;7.10;99.90;;;;;;5029446;28;20041;-84
2022/11/23 02:03:23;;;;;;;0.10;0.10;;;7.10;99.90;;;;;;5047726;28;20029;-84
2022/11/23 02:05:58;;;;;;;0.10;0.10;;;7.20;99.90;;;;;;5060457;28;20419;-85
2022/11/23 02:08:25;;;;;;;0.22;0.22;;;7.20;99.90;;;;;;5047036;28;20098;-85
2022/11/23 02:10:51;;;;;;;0.10;0.10;;;7.10;99.90;;;;;;5029052;28;20025;-85
2022/11/23 02:13:17;;;;;;;0.10;0.10;;;7.10;99.90;;;;;;5050702;28;20532;-85
2022/11/23 02:15:43;;;;;;;0.25;0.25;;;7.10;99.90;;;;;;5024296;28;20095;-87
2022/11/23 02:18:15;;;;;;;0.10;0.10;;;7.20;99.90;;;;;;5029130;28;20036;-85
2022/11/23 02:20:43;;;;;;;0.10;0.10;;;7.10;99.90;;;;;;5048007;28;20037;-83
2022/11/23 02:23:40;;;;;;;0.10;0.10;;;7.20;99.90;;;;;;5046464;28;20577;-85
2022/11/23 02:26:15;;;;;;;0.10;0.10;;;7.20;99.90;;;;;;5046594;28;20040;-84
2022/11/23 02:29:10;;;;;;;0.10;0.10;;;7.30;99.90;;;;;;5045895;28;20039;-84
2022/11/23 02:31:35;;;;;;;0.10;0.10;;;7.10;99.90;;;;;;5045607;28;20033;-82
2022/11/23 02:34:01;;;;;;;0.10;0.10;;;7.20;99.90;;;;;;5046943;28;20043;-82
2022/11/23 02:36:34;;;;;;;0.20;0.20;;;7.20;99.90;;;;;;5027905;28;20029;-84
2022/11/23 02:39:05;;;;;;;0.10;0.10;;;7.30;99.90;;;;;;5048052;28;20040;-84
2022/11/23 02:41:43;;;;;;;0.10;0.10;;;7.10;99.90;;;;;;5027951;28;20044;-84
2022/11/23 02:44:20;;;;;;;0.10;0.10;;;7.20;99.90;;;;;;5024207;28;20032;-84
2022/11/23 02:46:46;;;;;;;0.10;0.10;;;7.10;99.90;;;;;;5046829;28;20783;-82
2022/11/23 02:49:11;;;;;;;0.10;0.10;;;7.00;99.90;;;;;;5045642;28;20104;-84
2022/11/23 02:51:37;;;;;;;0.10;0.10;;;7.10;99.90;;;;;;5025451;28;20091;-83
2022/11/23 02:54:02;;;;;;;0.10;0.10;;;7.10;99.90;;;;;;5046260;28;20036;-84
2022/11/23 02:56:28;;;;;;;0.10;0.10;;;7.00;99.90;;;;;;5028071;28;20044;-84
2022/11/23 02:58:54;;;;;;;0.08;0.08;;;7.10;99.90;;;;;;5046151;28;20067;-86
2022/11/23 03:01:19;;;;;;;0.10;0.10;;;7.20;99.90;;;;;;5027846;28;20036;-84
2022/11/23 03:03:45;;;;;;;0.10;0.10;;;7.10;99.90;;;;;;5051829;28;20033;-85
2022/11/23 03:06:11;;;;;;;0.10;0.10;;;7.00;99.90;;;;;;5046885;28;20040;-86
2022/11/23 03:08:36;;;;;;;0.10;0.10;;;7.10;99.90;;;;;;5046760;28;20044;-85
2022/11/23 03:11:02;;;;;;;0.10;0.10;;;7.10;99.90;;;;;;5047024;28;20032;-84
2022/11/23 03:13:28;;;;;;;0.10;0.10;;;7.20;99.90;;;;;;5048258;28;20036;-84
2022/11/23 03:15:56;;;;;;;0.10;0.10;;;7.20;99.90;;;;;;5050111;28;20025;-85
2022/11/23 03:18:22;;;;;;;0.10;0.10;;;7.20;99.90;;;;;;5032415;28;20029;-84
2022/11/23 03:20:48;;;;;;;0.10;0.10;;;7.10;99.90;;;;;;5035446;28;20471;-85
2022/11/23 03:23:13;;;;;;;0.10;0.10;;;7.20;99.90;;;;;;5032113;28;20136;-86
2022/11/23 03:25:39;;;;;;;0.10;0.10;;;7.30;99.90;;;;;;5030602;28;20028;-86
2022/11/23 03:28:05;;;;;;;0.68;0.68;;;7.20;99.90;;;;;;5030234;28;20025;-85
2022/11/23 03:30:30;;;;;;;0.10;0.10;;;7.30;99.90;;;;;;5031249;28;20043;-86
2022/11/23 03:32:56;;;;;;;0.10;0.10;;;7.20;99.90;;;;;;5031419;28;20025;-86
2022/11/23 03:35:22;;;;;;;0.10;0.10;;;7.20;99.90;;;;;;5049752;28;20025;-86
2022/11/23 03:37:48;;;;;;;0.10;0.10;;;7.20;99.90;;;;;;5044242;28;20029;-86
2022/11/23 03:40:13;;;;;;;0.10;0.10;;;7.30;99.90;;;;;;5048801;28;20029;-87
2022/11/23 03:42:40;;;;;;;0.10;0.10;;;7.30;99.90;;;;;;5048936;28;20072;-86
2022/11/23 03:45:06;;;;;;;0.10;0.10;;;7.20;99.90;;;;;;5049789;28;20029;-86
2022/11/23 03:47:32;;;;;;;0.10;0.10;;;7.30;99.90;;;;;;5031562;28;20033;-87
2022/11/23 03:49:58;;;;;;;0.10;0.10;;;7.30;99.90;;;;;;5031613;28;20033;-86
2022/11/23 03:52:23;;;;;;;0.10;0.10;;;7.40;99.90;;;;;;5057042;28;20132;-90
2022/11/23 03:54:49;;;;;;;0.10;0.10;;;7.30;99.90;;;;;;5036429;28;20064;-92
2022/11/23 03:57:15;;;;;;;0.10;0.10;;;7.30;99.90;;;;;;5026587;28;20033;-86
2022/11/23 03:59:41;;;;;;;0.10;0.10;;;7.30;99.90;;;;;;5031402;28;20032;-85
2022/11/23 04:02:06;;;;;;;0.10;0.10;;;7.20;99.90;;;;;;5062180;28;20040;-84
2022/11/23 04:04:33;;;;;;;0.10;0.10;;;7.20;99.90;;;;;;5056893;28;20609;-83
2022/11/23 04:06:59;;;;;;;0.10;0.10;;;7.30;99.90;;;;;;5049251;28;20031;-83
2022/11/23 04:09:25;;;;;;;0.10;0.10;;;7.30;99.90;;;;;;5049106;28;20037;-83
2022/11/23 04:11:50;;;;;;;0.10;0.10;;;7.40;99.90;;;;;;5030355;28;20028;-83
2022/11/23 04:14:16;;;;;;;0.10;0.10;;;7.30;99.90;;;;;;5054043;28;20036;-83
2022/11/23 04:16:42;;;;;;;0.10;0.10;;;7.40;99.90;;;;;;5049080;28;20091;-84
2022/11/23 04:19:07;;;;;;;0.10;0.10;;;7.50;99.90;;;;;;5049603;28;20082;-83
2022/11/23 04:21:33;;;;;;;0.10;0.10;;;7.50;99.90;;;;;;5048612;28;20025;-87
2022/11/23 04:23:59;;;;;;;0.10;0.10;;;7.40;99.90;;;;;;5055234;28;20036;-87
2022/11/23 04:26:24;;;;;;;0.10;0.10;;;7.40;99.90;;;;;;5030047;28;20051;-86
2022/11/23 04:28:50;;;;;;;0.10;0.10;;;7.40;99.90;;;;;;5048393;28;20037;-84
2022/11/23 04:31:16;;;;;;;0.30;0.30;;;7.50;99.90;;;;;;5048906;28;20021;-85
2022/11/23 04:33:41;;;;;;;0.75;0.57;;;7.60;99.90;;;;;;5060900;28;20087;-84
2022/11/23 04:36:07;;;;;;;0.10;0.10;;;7.70;99.90;;;;;;5046435;28;20032;-84
2022/11/23 04:38:33;;;;;;;0.10;0.10;;;7.60;99.90;;;;;;5028093;28;20028;-85
2022/11/23 04:40:59;;;;;;;0.10;0.10;;;7.60;99.90;;;;;;5030530;28;20119;-84
2022/11/23 04:43:25;;;;;;;0.10;0.10;;;7.70;99.90;;;;;;5049631;28;20072;-86
2022/11/23 04:45:50;;;;;;;0.10;0.10;;;7.70;99.90;;;;;;5048488;28;20028;-84
2022/11/23 04:51:02;;;;;;;0.30;0.30;;;7.80;99.90;;;;;;4976471;28;20121;-83
2022/11/23 04:53:27;;;;;;;0.10;0.10;;;7.80;99.90;;;;;;5033413;28;20128;-84
2022/11/23 04:55:53;;;;;;;0.30;0.30;;;7.70;99.90;;;;;;5048380;28;20052;-84
2022/11/23 04:58:19;;;;;;;0.10;0.10;;;7.90;99.90;;;;;;5055631;28;20927;-84
2022/11/23 05:00:44;;;;;;;1.02;0.52;;;7.90;99.90;;;;;;5050406;28;20021;-84
2022/11/23 05:03:10;;;;;;;0.10;0.10;;;7.90;99.90;;;;;;5051837;28;20795;-84
2022/11/23 05:05:38;;;;;;;0.10;0.10;;;7.90;99.90;;;;;;5047972;28;20102;-84
2022/11/23 05:08:04;;;;;;;0.10;0.10;;;8.00;99.90;;;;;;5029289;28;20094;-84
2022/11/23 05:10:29;;;;;;;0.10;0.10;;;7.90;99.90;;;;;;5030228;28;20032;-84
2022/11/23 05:12:55;;;;;;;0.10;0.10;;;8.00;99.90;;;;;;5048073;28;20489;-83
2022/11/23 05:15:21;;;;;;;0.10;0.10;;;8.00;99.90;;;;;;5048274;28;20583;-83
2022/11/23 05:17:46;;;;;;;0.10;0.10;;;8.00;99.90;;;;;;5047366;28;20029;-85
2022/11/23 05:20:12;;;;;;;1.10;0.40;;;8.00;99.90;;;;;;5047396;28;20511;-83
2022/11/23 05:22:38;;;;;;;0.10;0.10;;;8.00;99.90;;;;;;5047077;28;20707;-83
2022/11/23 05:25:04;;;;;;;0.10;0.10;;;8.00;99.90;;;;;;5046348;28;20048;-83
2022/11/23 05:27:30;;;;;;;0.10;0.10;;;8.00;99.90;;;;;;5028885;28;20064;-83
2022/11/23 05:29:56;;;;;;;0.10;0.10;;;8.00;99.90;;;;;;5047306;28;20060;-83
2022/11/23 05:32:21;;;;;;;0.10;0.10;;;8.00;99.90;;;;;;5029232;28;20029;-86
2022/11/23 05:34:47;;;;;;;0.10;0.10;;;8.10;99.90;;;;;;5047789;28;20033;-86
2022/11/23 05:37:12;;;;;;;0.20;0.20;;;8.00;99.90;;;;;;5048929;28;20142;-85
2022/11/23 05:39:38;;;;;;;0.15;0.15;;;8.10;99.90;;;;;;5028598;28;20055;-85
2022/11/23 05:42:04;;;;;;;0.10;0.10;;;8.10;99.90;;;;;;5028905;28;21923;-82
2022/11/23 05:44:30;;;;;;;0.10;0.10;;;8.00;99.90;;;;;;5046205;28;20079;-83
2022/11/23 05:46:56;;;;;;;0.10;0.10;;;8.10;99.90;;;;;;5046971;28;20039;-86
2022/11/23 05:49:21;;;;;;;0.55;0.30;;;8.10;99.90;;;;;;5048233;28;20025;-85
2022/11/23 05:51:47;;;;;;;1.17;1.17;;;8.20;99.90;;;;;;5060394;28;20040;-82
2022/11/23 05:54:13;;;;;;;0.30;0.30;;;8.20;99.90;;;;;;5046454;28;20029;-84
2022/11/23 05:56:38;;;;;;;0.10;0.10;;;8.20;99.90;;;;;;5059872;28;20083;-88
2022/11/23 05:59:04;;;;;;;0.10;0.10;;;8.10;99.90;;;;;;5047094;28;20064;-88
2022/11/23 06:01:30;;;;;;;0.10;0.10;;;8.20;99.90;;;;;;5029571;28;20036;-86
2022/11/23 06:03:56;;;;;;;0.10;0.10;;;8.20;99.90;;;;;;5030172;28;20036;-85
2022/11/23 06:06:22;;;;;;;0.10;0.10;;;8.30;99.90;;;;;;5047485;28;20036;-91
2022/11/23 06:08:48;;;;;;;0.10;0.10;;;8.20;99.90;;;;;;5059525;28;20025;-87
2022/11/23 06:11:13;;;;;;;0.10;0.10;;;8.30;99.90;;;;;;5034212;28;20031;-90
2022/11/23 06:13:39;;;;;;;0.20;0.20;;;8.40;99.90;;;;;;5027877;28;20530;-88
2022/11/23 06:16:05;;;;;;;0.13;0.13;;;8.40;99.90;;;;;;5030315;28;20041;-90
2022/11/23 06:18:30;;;;;;;0.10;0.10;;;8.30;99.90;;;;;;5025099;28;20028;-87
2022/11/23 06:21:00;;;;;;;0.10;0.10;;;8.30;99.90;;;;;;5019353;28;20714;-89
2022/11/23 06:23:26;;;;;;;0.10;0.10;;;8.40;99.90;;;;;;5036362;28;20025;-89
2022/11/23 06:25:52;;;;;;;0.10;0.10;;;8.40;99.90;;;;;;5033764;28;20462;-95
2022/11/23 06:28:17;;;;;;;0.10;0.10;;;8.40;99.90;;;;;;5035357;28;20098;-95
2022/11/23 06:30:43;;;;;;;0.63;0.47;;;8.40;99.90;;;;;;5057546;28;20044;-87
2022/11/23 06:33:09;;;;;;;0.38;0.28;;;8.40;99.90;;;;;;5058887;28;20040;-92
2022/11/23 06:35:35;;;;;;;8.35;2.90;;;8.40;99.90;;;;;;5036327;28;20062;-91
2022/11/23 06:38:01;;;;;;;0.47;0.47;;;8.50;99.90;;;;;;5031784;28;20040;-90
2022/11/23 06:40:27;;;;;;;0.10;0.10;;;8.50;99.90;;;;;;5032576;28;20029;-93
2022/11/23 06:42:59;;;;;;;1.27;1.27;;;8.50;99.90;;;;;;5032097;28;20094;-89
2022/11/23 06:45:26;;;;;;;1.85;1.70;;;8.50;99.90;;;;;;5036152;28;20099;-85
2022/11/23 06:47:55;;;;;;;0.60;0.60;;;8.60;99.90;;;;;;5028952;28;20032;-86
2022/11/23 06:50:21;;;;;;;0.55;0.52;;;8.60;99.90;;;;;;5021093;28;20041;-88
2022/11/23 06:52:47;;;;;;;0.10;0.10;;;8.60;99.90;;;;;;5070003;28;20052;-92
2022/11/23 06:55:13;;;;;;;0.47;0.25;;;8.50;99.90;;;;;;5029672;28;20052;-94
2022/11/23 06:57:38;;;;;;;0.30;0.30;;;8.60;99.90;;;;;;5039917;28;20036;-92
2022/11/23 07:00:05;;;;;;;0.30;0.30;;;8.60;99.90;;;;;;5037638;28;20060;-88
2022/11/23 07:02:30;;;;;;;0.13;0.13;;;8.60;99.90;;;;;;5056483;28;20061;-88
2022/11/23 07:04:56;;;;;;;0.75;0.75;;;8.70;99.90;;;;;;5033857;28;20064;-87
2022/11/23 07:07:21;;;;;;;0.40;0.40;;;8.70;99.90;;;;;;5032972;28;20099;-90
2022/11/23 07:09:47;;;;;;;0.30;0.30;;;8.70;99.90;;;;;;5042644;28;20087;-92
2022/11/23 07:12:13;;;;;;;0.10;0.10;;;8.70;99.90;;;;;;5044166;28;20048;-94
2022/11/23 07:14:39;;;;;;;0.10;0.10;;;8.60;99.90;;;;;;5048818;28;20043;-93
2022/11/23 07:17:04;;;;;;;1.50;0.93;;;8.60;99.90;;;;;;5067142;28;20025;-93
2022/11/23 07:19:32;;;;;;;0.30;0.30;;;8.60;99.90;;;;;;5056829;28;20028;-95
2022/11/23 07:22:01;;;;;;;0.10;0.10;;;8.70;99.90;;;;;;5041632;28;20540;-86
2022/11/23 07:24:29;;;;;;;3.67;1.35;;;8.70;99.90;;;;;;5036370;28;20732;-90
2022/11/23 07:26:57;;;;;;;0.10;0.10;;;8.70;99.90;;;;;;5044148;28;20033;-91
2022/11/23 07:29:23;;;;;;;0.10;0.10;;;8.70;99.90;;;;;;5045733;28;20152;-87
2022/11/23 07:31:49;;;;;;;0.10;0.10;;;8.70;99.90;;;;;;5034762;28;20126;-87
2022/11/23 07:34:15;;;;;;;0.25;0.25;;;8.70;99.90;;;;;;5061869;28;20485;-89
2022/11/23 07:36:40;;;;;;;0.35;0.20;;;8.80;99.90;;;;;;5031409;28;20021;-87
2022/11/23 07:39:06;;;;;;;0.10;0.10;;;8.80;99.90;;;;;;5053226;28;20094;-89
2022/11/23 07:41:32;;;;;;;0.10;0.10;;;8.80;99.90;;;;;;5068864;28;20025;-91
2022/11/23 07:43:58;;;;;;;0.10;0.10;;;8.80;99.90;;;;;;5069274;28;20040;-92
2022/11/23 07:46:24;;;;;;;0.28;0.28;;;8.90;99.90;;;;;;5037008;28;20036;-90
2022/11/23 07:48:49;;;;;;;0.10;0.10;;;8.90;99.90;;;;;;5040242;28;20451;-88
2022/11/23 07:51:15;;;;;;;0.10;0.10;;;9.00;99.90;;;;;;5034196;28;20138;-89
2022/11/23 07:53:41;;;;;;;0.10;0.10;;;9.00;99.90;;;;;;5038029;28;20036;-90
2022/11/23 07:56:07;;;;;;;0.25;0.25;;;9.00;99.90;;;;;;5053905;28;20045;-90
2022/11/23 07:58:33;;;;;;;1.08;1.02;;;9.00;99.90;;;;;;5036676;28;20029;-91
2022/11/23 08:00:59;;;;;;;0.43;0.43;;;9.00;99.90;;;;;;5036327;28;20496;-92
2022/11/23 08:03:25;;;;;;;0.10;0.10;;;9.00;99.90;;;;;;5037341;28;20359;-90
2022/11/23 08:05:50;;;;;;;0.40;0.40;;;9.00;99.90;;;;;;5053656;28;20029;-89
2022/11/23 08:08:16;;;;;;;0.10;0.10;;;9.00;99.90;;;;;;5037710;28;20035;-91
2022/11/23 08:10:42;;;;;;;0.10;0.10;;;9.00;99.90;;;;;;5037683;28;20056;-89
2022/11/23 08:13:07;;;;;;;0.10;0.10;;;9.00;99.90;;;;;;5056150;28;20111;-90
2022/11/23 08:15:34;;;;;;;0.10;0.10;;;9.00;99.90;;;;;;5036396;28;20024;-89
2022/11/23 08:18:02;;;;;;;0.30;0.30;;;9.00;99.90;;;;;;5036951;28;20029;-91
2022/11/23 08:20:29;;;;;;;0.50;0.50;;;9.10;99.90;;;;;;5036981;28;20052;-90
2022/11/23 08:22:55;;;;;;;0.10;0.10;;;9.20;99.90;;;;;;5037079;28;20493;-91
2022/11/23 08:25:22;;;;;;;0.20;0.20;;;9.10;99.90;;;;;;5036857;28;20118;-89
2022/11/23 08:28:03;;;;;;;0.63;0.28;;;9.10;99.90;;;;;;5055057;28;20375;-91
2022/11/23 08:30:31;;;;;;;0.10;0.10;;;9.10;99.90;;;;;;5036903;28;20029;-91
2022/11/23 08:32:57;;;;;;;0.10;0.10;;;9.20;99.90;;;;;;5037387;28;20495;-91
2022/11/23 08:35:22;;;;;;;0.10;0.10;;;9.20;99.90;;;;;;5048372;28;20036;-89
2022/11/23 08:37:48;;;;;;;0.10;0.10;;;9.30;99.90;;;;;;5036919;28;20025;-89
2022/11/23 08:40:14;;;;;;;0.10;0.10;;;9.30;99.90;;;;;;5037309;28;20025;-92
2022/11/23 08:42:40;;;;;;;0.10;0.10;;;9.20;99.90;;;;;;5037540;28;20037;-91
2022/11/23 08:45:07;;;;;;;0.10;0.10;;;9.30;99.90;;;;;;5037450;28;20271;-91
2022/11/23 08:47:33;;;;;;;0.22;0.22;;;9.40;99.90;;;;;;5036463;28;20033;-91
2022/11/23 08:49:59;;;;;;;0.38;0.38;;;9.40;99.90;;;;;;5038424;28;20028;-91
2022/11/23 08:52:25;;;;;;;0.10;0.10;;;9.40;99.90;;;;;;5037466;28;20029;-91
2022/11/23 08:54:51;;;;;;;0.32;0.32;;;9.30;99.90;;;;;;5069408;28;20511;-91
2022/11/23 08:57:17;;;;;;;0.10;0.10;;;9.40;99.90;;;;;;5039818;28;20091;-90
2022/11/23 08:59:42;;;;;;;0.20;0.20;;;9.40;99.90;;;;;;5057548;28;20025;-91
2022/11/23 09:02:12;;;;;;;0.25;0.25;;;9.40;99.90;;;;;;5037777;28;20894;-91
2022/11/23 09:04:42;;;;;;;0.10;0.10;;;9.30;99.90;;;;;;5037830;28;20021;-91
2022/11/23 09:07:07;;;;;;;0.10;0.10;;;9.40;99.90;;;;;;5037064;28;20035;-90
2022/11/23 09:09:33;;;;;;;0.10;0.10;;;9.40;99.90;;;;;;5044494;28;20092;-91
2022/11/23 09:11:59;;;;;;;0.28;0.28;;;9.40;99.90;;;;;;5037962;28;20127;-92
2022/11/23 09:14:26;;;;;;;0.10;0.10;;;9.40;99.90;;;;;;5042395;28;20032;-90
2022/11/23 09:16:52;;;;;;;0.10;0.10;;;9.50;99.90;;;;;;5037192;28;20033;-92
2022/11/23 09:19:18;;;;;;;0.10;0.10;;;9.60;99.90;;;;;;5036969;28;20029;-91
2022/11/23 09:21:44;;;;;;;0.20;0.20;;;9.60;99.90;;;;;;5041882;28;20040;-90
2022/11/23 09:24:10;;;;;;;0.10;0.10;;;9.50;99.90;;;;;;5037134;28;20036;-92
2022/11/23 09:26:37;;;;;;;0.10;0.10;;;9.60;99.90;;;;;;5037691;28;20033;-91
2022/11/23 09:29:04;;;;;;;0.10;0.10;;;9.60;99.90;;;;;;5036923;28;20072;-91
2022/11/23 09:31:29;;;;;;;0.30;0.30;;;9.60;99.90;;;;;;5036861;28;20032;-91
2022/11/23 09:33:55;;;;;;;0.20;0.20;;;9.60;99.90;;;;;;5040386;28;20037;-91
2022/11/23 09:36:25;;;;;;;0.28;0.28;;;9.60;99.90;;;;;;5036800;28;20471;-91
2022/11/23 09:38:51;;;;;;;0.10;0.10;;;9.50;99.90;;;;;;5036194;28;20033;-91
2022/11/23 09:41:25;;;;;;;0.38;0.38;;;9.50;99.90;;;;;;5036265;28;20032;-90
2022/11/23 09:43:54;;;;;;;0.43;0.30;;;9.50;99.90;;;;;;5070469;28;20028;-90
2022/11/23 09:46:49;;;;;;;0.10;0.10;;;9.50;99.90;;;;;;5036506;28;20029;-90
2022/11/23 09:49:18;;;;;;;0.20;0.20;;;9.50;99.90;;;;;;5031611;28;20048;-89
2022/11/23 09:51:45;;;;;;;0.10;0.10;;;9.50;99.90;;;;;;5064537;28;20074;-89
2022/11/23 09:54:21;;;;;;;0.10;0.10;;;9.50;99.90;;;;;;5042256;28;20037;-87
2022/11/23 09:56:50;;;;;;;0.10;0.10;;;9.60;99.90;;;;;;5033828;28;20095;-89
2022/11/23 09:59:33;;;;;;;0.10;0.10;;;9.70;99.90;;;;;;5061700;28;20025;-88
2022/11/23 10:02:00;;;;;;;0.10;0.10;;;9.80;99.90;;;;;;5043256;28;20048;-91
2022/11/23 10:04:32;;;;;;;0.20;0.20;;;9.80;99.90;;;;;;5034712;28;20605;-90
2022/11/23 10:07:22;;;;;;;0.10;0.10;;;9.70;99.90;;;;;;5025770;28;20087;-91
2022/11/23 10:10:25;;;;;;;0.10;0.10;;;9.70;99.90;;;;;;5035027;28;20063;-91
2022/11/23 10:13:19;;;;;;;0.10;0.10;;;9.70;99.90;;;;;;5037591;28;20020;-90
2022/11/23 10:16:02;;;;;;;0.10;0.10;;;9.80;99.90;;;;;;5036644;28;20132;-91
2022/11/23 10:18:34;;;;;;;0.10;0.10;;;9.80;99.90;;;;;;5036051;28;20035;-90
2022/11/23 10:21:06;;;;;;;0.10;0.10;;;9.80;99.90;;;;;;5069066;28;20576;-92
2022/11/23 10:23:53;;;;;;;0.10;0.10;;;9.90;99.90;;;;;;5056477;28;20037;-92
2022/11/23 10:26:25;;;;;;;0.10;0.10;;;10.00;99.90;;;;;;5041608;28;20079;-90
2022/11/23 10:28:53;;;;;;;0.10;0.10;;;10.20;99.90;;;;;;5040585;28;20040;-92
2022/11/23 10:31:21;;;;;;;0.10;0.10;;;10.30;99.90;;;;;;5040467;28;20017;-92
2022/11/23 10:34:01;;;;;;;0.10;0.10;;;10.30;99.90;;;;;;5028735;28;20127;-92
2022/11/23 10:36:26;;;;;;;0.10;0.10;;;10.20;99.90;;;;;;5045993;28;20474;-92
2022/11/23 10:39:00;;;;;;;0.10;0.10;;;10.20;99.90;;;;;;5036625;28;20071;-93
2022/11/23 10:41:29;;;;;;;0.10;0.10;;;10.20;99.90;;;;;;5036158;28;20072;-92
2022/11/23 10:44:16;;;;;;;0.05;0.05;;;10.10;99.90;;;;;;5036940;28;20028;-92
2022/11/23 10:46:42;;;;;;;0.20;0.20;;;10.20;99.90;;;;;;5047207;28;20163;-92
2022/11/23 10:49:21;;;;;;;0.10;0.10;;;10.30;99.90;;;;;;5037252;28;20068;-93
2022/11/23 10:52:04;;;;;;;0.10;0.10;;;10.30;99.90;;;;;;5036570;28;20108;-92
2022/11/23 10:54:36;;;;;;;0.10;0.10;;;10.30;99.90;;;;;;5031394;28;20055;-94
2022/11/23 10:57:32;;;;;;;0.10;0.10;;;10.40;99.90;;;;;;5036075;28;20037;-92
2022/11/23 10:59:58;;;;;;;;;;;10.40;99.90;;;;;;5031565;28;20033;-92
2022/11/23 11:02:24;;;;;;;0.10;0.10;;;10.30;99.90;;;;;;5060095;28;19905;-93
2022/11/23 11:05:10;;;;;;;0.10;0.10;;;10.30;99.90;;;;;;5036022;28;20060;-93
2022/11/23 11:07:36;;;;;;;0.10;0.10;;;10.40;99.90;;;;;;5053991;28;20056;-93
2022/11/23 11:10:03;;;;;;;0.10;0.10;;;10.40;99.90;;;;;;5066132;28;20039;-93
2022/11/23 11:12:32;;;;;;;0.10;0.10;;;10.40;99.90;;;;;;5027529;28;20021;-93
2022/11/23 11:15:03;;;;;;;0.10;0.10;;;10.50;99.90;;;;;;5031905;28;20025;-92
2022/11/23 11:17:32;;;;;;;0.10;0.10;;;10.60;99.90;;;;;;5042450;28;20029;-93
2022/11/23 11:19:58;;;;;;;0.47;0.30;;;10.70;99.90;;;;;;5036977;28;20029;-93
2022/11/23 11:22:35;;;;;;;0.10;0.10;;;10.80;99.90;;;;;;5050334;28;20036;-92
2022/11/23 11:25:03;;;;;;;;;;;10.90;99.90;;;;;;5031898;28;20514;-93
2022/11/23 11:27:30;;;;;;;0.10;0.10;;;10.90;99.90;;;;;;5036578;28;19905;-94
2022/11/23 11:30:16;;;;;;;0.10;0.10;;;11.00;99.90;;;;;;5036111;28;20040;-93
2022/11/23 11:32:52;;;;;;;0.10;0.10;;;11.20;99.90;;;;;;5043340;28;20053;-93
2022/11/23 11:35:42;;;;;;;0.10;0.10;;;11.40;99.90;;;;;;5038988;28;20342;-93
2022/11/23 11:38:24;;;;;;;0.10;0.10;;;11.60;99.90;;;;;;5043986;28;20024;-93
2022/11/23 11:40:51;;;;;;;0.10;0.10;;;11.70;99.90;;;;;;5045224;28;20024;-94
2022/11/23 11:43:28;;;;;;;0.20;0.20;;;11.70;99.90;;;;;;5048551;28;20025;-93
2022/11/23 11:45:57;;;;;;;0.10;0.10;;;12.00;99.90;;;;;;5043668;28;20060;-88
2022/11/23 11:48:32;;;;;;;1.75;0.38;;;12.00;99.90;;;;;;5056305;28;20032;-92
2022/11/23 11:51:19;;;;;;;0.00;0.00;;;11.90;99.90;;;;;;5038876;28;20025;-91
2022/11/23 11:53:48;;;;;;;0.77;0.45;;;12.00;99.90;;;;;;5037688;28;20361;-92
2022/11/23 11:56:26;;;;;;;0.10;0.10;;;12.00;99.90;;;;;;5064950;28;20129;-89
2022/11/23 11:59:08;;;;;;;0.10;0.10;;;12.20;99.90;;;;;;5051545;28;20053;-92
2022/11/23 12:02:00;;;;;;;0.20;0.20;;;12.10;99.90;;;;;;5036019;28;20040;-92
2022/11/23 12:04:56;;;;;;;1.65;1.00;;;12.10;99.90;;;;;;5029722;28;20033;-89
2022/11/23 12:07:40;;;;;;;0.03;0.03;;;11.90;99.90;;;;;;5036139;28;20040;-94
2022/11/23 12:10:20;;;;;;;0.00;0.00;;;11.80;99.90;;;;;;5034444;28;20029;-87
2022/11/23 12:12:47;;;;;;;0.22;0.22;;;11.70;99.90;;;;;;5033885;28;20029;-88
2022/11/23 12:15:36;;;;;;;1.75;1.17;;;11.60;99.90;;;;;;5057225;28;20021;-93
2022/11/23 12:18:24;;;;;;;0.20;0.20;;;11.90;99.90;;;;;;5035751;28;20036;-94
2022/11/23 12:21:03;;;;;;;0.17;0.17;;;12.00;99.90;;;;;;5030054;28;20108;-93
2022/11/23 12:23:29;;;;;;;0.10;0.10;;;12.00;99.90;;;;;;5039454;28;20025;-93
2022/11/23 12:26:30;;;;;;;0.10;0.10;;;11.70;99.90;;;;;;5038947;28;20048;-95
2022/11/23 12:29:11;;;;;;;0.25;0.25;;;11.70;99.90;;;;;;5039060;28;20040;-94
2022/11/23 12:31:49;;;;;;;0.93;0.85;;;11.70;99.90;;;;;;5036524;28;20044;-95
2022/11/23 12:34:36;;;;;;;0.32;0.32;;;11.70;99.90;;;;;;5043216;28;20032;-95
2022/11/23 12:37:26;;;;;;;0.98;0.98;;;11.70;99.90;;;;;;5036262;28;20029;-93
2022/11/23 12:40:10;;;;;;;1.08;0.70;;;11.80;99.90;;;;;;5044675;28;20063;-94
2022/11/23 12:42:39;;;;;;;6.07;1.65;;;12.00;99.90;;;;;;5051789;28;20029;-90
2022/11/23 12:45:08;;;;;;;0.73;0.68;;;12.00;99.90;;;;;;5072769;28;20024;-91
2022/11/23 12:48:01;;;;;;;4.65;1.40;;;12.00;99.90;;;;;;5041758;28;20021;-94
2022/11/23 12:50:42;;;;;;;0.10;0.10;;;12.00;99.90;;;;;;5037953;28;20061;-94
2022/11/23 12:53:23;;;;;;;1.55;0.73;;;11.90;99.90;;;;;;5040583;28;20036;-92
2022/11/23 12:56:16;;;;;;;0.10;0.10;;;11.90;99.90;;;;;;5031528;28;20126;-93
2022/11/23 12:58:48;;;;;;;3.20;2.20;;;11.90;99.90;;;;;;5073164;28;20034;-90
2022/11/23 13:01:20;;;;;;;0.10;0.10;;;11.90;99.90;;;;;;5058331;28;20542;-92
2022/11/23 13:04:24;;;;;;;3.05;1.90;;;12.00;99.90;;;;;;5033979;28;20032;-95
2022/11/23 13:07:04;;;;;;;1.38;1.27;;;12.10;99.90;;;;;;5073632;28;20060;-95
2022/11/23 13:09:59;;;;;;;0.77;0.77;;;12.20;99.90;;;;;;5039968;28;20037;-91